Time;durP1;ratioP1;P1;durP2;ratioP2;P2;SDS_P1;SDS_P2;PMS_P1;PMS_P2;Temp;Humidity;BMP_temperature;BMP_pressure;BME280_temperature;BME280_humidity;BME280_pressure;Samples;Min_cycle;Max_cycle;Signal;HPM_P1;HPM_P2
2021/09/30 00:02:20;;;;;;;0.83;0.63;;;;;;;21.34;48.28;99365.50;5052493;28;20558;-55
2021/09/30 00:04:47;;;;;;;0.70;0.70;;;;;;;21.32;48.11;99365.66;5053595;28;20722;-53
2021/09/30 00:07:13;;;;;;;0.63;0.60;;;;;;;21.38;48.30;99362.34;5053632;28;20655;-54
2021/09/30 00:09:44;;;;;;;0.93;0.80;;;;;;;21.58;47.83;99366.59;5054096;28;20193;-55
2021/09/30 00:12:18;;;;;;;0.70;0.70;;;;;;;21.69;47.26;99371.69;5053676;28;20184;-55
2021/09/30 00:33:53;;;;;;;2.10;0.70;;;;;;;21.54;47.32;99382.88;5053259;28;20241;-55
2021/09/30 02:19:18;;;;;;;0.70;0.70;;;;;;;21.07;48.42;99426.56;5054429;28;20205;-53
2021/09/30 02:58:39;;;;;;;0.63;0.63;;;;;;;20.99;48.54;99448.56;5053704;28;20196;-52
2021/09/30 03:01:13;;;;;;;0.73;0.73;;;;;;;21.05;48.44;99454.22;5053545;28;20196;-55
2021/09/30 03:03:44;;;;;;;0.63;0.60;;;;;;;21.04;48.36;99455.22;5053472;28;20226;-55
2021/09/30 03:06:11;;;;;;;0.53;0.53;;;;;;;21.03;48.60;99456.19;5054764;28;20186;-53
2021/09/30 03:08:57;;;;;;;0.70;0.60;;;;;;;20.97;48.10;99458.47;5054709;28;20688;-54
2021/09/30 03:11:25;;;;;;;0.77;0.70;;;;;;;20.98;48.27;99454.81;5053826;28;20665;-53
2021/09/30 03:13:53;;;;;;;1.10;0.80;;;;;;;21.02;48.34;99452.69;5053306;28;20215;-55
2021/09/30 03:18:57;;;;;;;0.67;0.67;;;;;;;21.09;47.99;99455.56;5054025;28;20288;-53
2021/09/30 03:24:15;;;;;;;0.60;0.60;;;;;;;21.16;48.07;99466.41;5054614;28;20552;-55
2021/09/30 03:26:44;;;;;;;0.60;0.60;;;;;;;21.20;47.81;99460.66;5053058;28;20208;-55
2021/09/30 03:29:12;;;;;;;0.87;0.70;;;;;;;21.19;47.68;99472.25;5054313;28;20263;-52
2021/09/30 03:31:39;;;;;;;0.60;0.60;;;;;;;21.15;47.79;99468.25;5052905;28;20193;-53
2021/09/30 03:34:38;;;;;;;0.47;0.47;;;;;;;21.15;47.88;99468.25;5054242;28;20321;-55
2021/09/30 03:37:05;;;;;;;0.60;0.60;;;;;;;21.12;48.02;99468.53;5053087;28;20695;-55
2021/09/30 03:39:32;;;;;;;0.63;0.63;;;;;;;21.11;47.78;99466.88;5053130;28;20200;-53
2021/09/30 03:41:59;;;;;;;0.60;0.60;;;;;;;21.08;48.10;99464.53;5054044;28;20191;-55
2021/09/30 03:44:33;;;;;;;0.60;0.60;;;;;;;21.10;47.69;99467.84;5053002;28;20211;-52
2021/09/30 03:46:59;;;;;;;0.97;0.60;;;;;;;21.07;48.04;99473.47;5052933;28;20193;-53
2021/09/30 03:49:37;;;;;;;0.80;0.80;;;;;;;21.05;48.14;99464.84;5053217;28;20227;-53
2021/09/30 03:52:13;;;;;;;1.10;0.60;;;;;;;21.03;47.77;99462.31;5052542;28;20193;-54
2021/09/30 03:54:53;;;;;;;0.53;0.53;;;;;;;21.03;48.20;99456.19;5052508;28;20213;-56
2021/09/30 03:59:48;;;;;;;0.60;0.60;;;;;;;21.22;47.52;99449.84;5052992;28;20777;-53
2021/09/30 04:02:23;;;;;;;0.67;0.67;;;;;;;21.24;47.55;99446.06;5052477;28;20212;-55
2021/09/30 04:04:50;;;;;;;0.70;0.70;;;;;;;21.23;47.55;99452.38;5052352;28;20274;-52
2021/09/30 04:07:18;;;;;;;0.60;0.60;;;;;;;21.19;47.41;99456.31;5052359;28;20185;-54
2021/09/30 04:09:45;;;;;;;0.97;0.50;;;;;;;21.20;47.49;99460.66;5035808;28;20239;-53
2021/09/30 04:12:13;;;;;;;0.70;0.70;;;;;;;21.26;47.27;99453.88;5052282;28;20686;-53
2021/09/30 04:14:41;;;;;;;0.80;0.70;;;;;;;21.26;47.47;99465.31;5052182;28;20712;-53
2021/09/30 04:17:08;;;;;;;0.60;0.60;;;;;;;21.28;47.62;99463.34;5052307;28;20214;-53
2021/09/30 04:19:36;;;;;;;0.90;0.80;;;;;;;21.18;47.60;99472.41;5052402;28;20197;-53
2021/09/30 04:22:03;;;;;;;0.67;0.67;;;;;;;21.17;47.72;99473.38;5051971;28;20206;-54
2021/09/30 04:24:31;;;;;;;0.40;0.40;;;;;;;21.13;47.59;99483.47;5052044;28;20269;-55
2021/09/30 04:26:57;;;;;;;0.70;0.70;;;;;;;21.16;47.82;99485.00;5052630;28;20196;-55
2021/09/30 04:29:25;;;;;;;0.60;0.60;;;;;;;21.15;47.33;99484.16;5052003;28;20223;-55
2021/09/30 04:31:52;;;;;;;0.70;0.70;;;;;;;21.12;47.73;99485.31;5053029;28;20601;-55
2021/09/30 04:34:19;;;;;;;0.60;0.60;;;;;;;21.15;47.66;99488.63;5053107;28;20230;-55
2021/09/30 04:36:46;;;;;;;0.70;0.70;;;;;;;21.18;47.50;99489.16;5051746;28;20265;-55
2021/09/30 04:39:16;;;;;;;0.60;0.50;;;;;;;20.94;47.82;99493.25;5051799;28;20193;-55
2021/09/30 04:41:44;;;;;;;1.00;0.90;;;;;;;20.96;48.30;99493.94;5051832;28;20201;-52
2021/09/30 04:44:12;;;;;;;0.70;0.70;;;;;;;20.97;48.09;99500.09;5036117;28;20217;-55
2021/09/30 04:46:40;;;;;;;0.60;0.60;;;;;;;20.95;47.93;99500.22;5051791;28;20192;-55
2021/09/30 04:49:30;;;;;;;0.70;0.70;;;;;;;20.92;48.12;99508.50;5047304;28;20215;-53
2021/09/30 04:51:56;;;;;;;0.70;0.70;;;;;;;20.95;48.25;99508.19;5051862;28;20198;-55
2021/09/30 04:54:23;;;;;;;0.70;0.60;;;;;;;20.89;48.40;99506.16;5051604;28;20212;-53
2021/09/30 04:56:49;;;;;;;0.60;0.60;;;;;;;20.80;48.32;99502.59;5051514;28;20615;-53
2021/09/30 04:59:27;;;;;;;0.90;0.60;;;;;;;20.77;48.41;99504.66;5051936;28;20219;-55
2021/09/30 05:02:11;;;;;;;0.60;0.60;;;;;;;20.74;48.29;99500.50;5053293;28;20568;-55
2021/09/30 05:04:38;;;;;;;0.60;0.60;;;;;;;20.71;48.55;99496.34;5051628;28;20220;-54
2021/09/30 05:07:06;;;;;;;0.80;0.80;;;;;;;20.74;48.57;99497.84;5051545;28;20189;-53
2021/09/30 05:09:34;;;;;;;0.70;0.70;;;;;;;20.74;48.66;99499.66;5051497;28;20633;-54
2021/09/30 05:12:04;;;;;;;0.60;0.60;;;;;;;20.76;48.51;99503.00;5051727;28;20201;-54
2021/09/30 05:14:33;;;;;;;0.80;0.80;;;;;;;20.74;48.42;99507.63;5051599;28;20272;-55
2021/09/30 05:17:00;;;;;;;1.23;0.60;;;;;;;20.79;48.17;99505.34;5051377;28;20309;-53
2021/09/30 05:19:37;;;;;;;0.67;0.63;;;;;;;20.88;48.26;99512.44;5051769;28;20667;-54
2021/09/30 05:22:06;;;;;;;0.67;0.60;;;;;;;20.87;48.33;99518.75;5051390;28;20198;-52
2021/09/30 05:24:32;;;;;;;0.60;0.60;;;;;;;20.91;48.27;99517.44;5052734;28;20220;-53
2021/09/30 05:26:59;;;;;;;0.70;0.70;;;;;;;20.90;48.23;99521.09;5051797;28;20238;-53
2021/09/30 05:29:25;;;;;;;0.90;0.70;;;;;;;20.89;48.30;99515.91;5051596;28;20546;-54
2021/09/30 05:32:21;;;;;;;0.70;0.60;;;;;;;20.83;48.65;99525.34;5042291;28;20694;-55
2021/09/30 05:34:55;;;;;;;0.67;0.67;;;;;;;20.92;48.42;99516.47;5053028;28;20597;-53
2021/09/30 05:37:28;;;;;;;1.17;0.70;;;;;;;20.93;48.32;99518.13;5055203;28;20208;-55
2021/09/30 05:39:55;;;;;;;0.70;0.70;;;;;;;21.00;47.97;99521.00;5055144;28;20202;-52
2021/09/30 05:42:25;;;;;;;0.70;0.60;;;;;;;21.00;48.21;99521.00;5055073;28;20690;-54
2021/09/30 05:44:54;;;;;;;0.70;0.70;;;;;;;20.98;48.47;99525.63;5055024;28;20213;-55
2021/09/30 05:47:20;;;;;;;0.63;0.63;;;;;;;21.02;48.35;99523.53;5055125;28;20197;-53
2021/09/30 05:49:47;;;;;;;0.53;0.50;;;;;;;21.05;48.20;99523.22;5054960;28;20285;-55
2021/09/30 05:52:32;;;;;;;0.53;0.50;;;;;;;21.09;48.08;99525.44;5057020;28;20190;-55
2021/09/30 05:55:25;;;;;;;0.80;0.80;;;;;;;21.07;48.38;99518.59;5032641;28;20271;-55
2021/09/30 05:57:52;;;;;;;0.60;0.60;;;;;;;21.10;48.06;99520.94;5054821;28;20198;-56
2021/09/30 06:03:52;;;;;;;0.80;0.60;;;;;;;21.17;47.98;99527.31;5054747;28;20215;-53
2021/09/30 06:16:24;;;;;;;0.80;0.80;;;;;;;21.23;48.13;99524.03;5055677;28;20203;-56
2021/09/30 06:19:01;;;;;;;0.70;0.70;;;;;;;21.29;47.74;99530.56;5054942;28;20195;-56
2021/09/30 06:21:31;;;;;;;0.70;0.60;;;;;;;21.36;47.54;99533.44;5054567;28;20725;-55
2021/09/30 06:23:58;;;;;;;0.67;0.67;;;;;;;21.33;47.94;99531.91;5054221;28;20779;-53
2021/09/30 06:26:25;;;;;;;0.60;0.60;;;;;;;21.32;47.56;99532.91;5054298;28;20195;-56
2021/09/30 06:29:07;;;;;;;1.30;0.60;;;;;;;21.30;47.92;99542.84;5054248;28;20568;-56
2021/09/30 06:31:35;;;;;;;0.70;0.70;;;;;;;21.36;47.68;99536.09;5054224;28;20287;-55
2021/09/30 06:34:20;;;;;;;0.80;0.60;;;;;;;21.49;47.25;99541.84;5056180;28;20224;-55
2021/09/30 06:37:13;;;;;;;1.03;0.60;;;;;;;21.52;47.43;99546.84;5053111;28;20224;-54
2021/09/30 06:39:39;;;;;;;0.60;0.60;;;;;;;21.48;47.53;99544.66;5054850;28;20193;-56
2021/09/30 06:42:06;;;;;;;0.63;0.63;;;;;;;21.50;47.50;99546.19;5053965;28;20210;-54
2021/09/30 06:44:44;;;;;;;0.70;0.70;;;;;;;21.44;47.62;99549.44;5055456;28;20208;-53
2021/09/30 06:47:26;;;;;;;0.60;0.60;;;;;;;21.48;47.54;99556.13;5056021;28;20174;-53
2021/09/30 06:50:00;;;;;;;0.77;0.77;;;;;;;21.59;47.14;99556.84;5054411;28;20205;-53
2021/09/30 06:53:03;;;;;;;1.00;0.70;;;;;;;21.08;48.65;99555.59;5055043;28;20187;-55
2021/09/30 06:55:48;;;;;;;1.03;0.93;;;;;;;21.45;47.55;99561.72;5055844;28;20186;-56
2021/09/30 06:58:43;;;;;;;1.40;1.00;;;;;;;21.28;47.74;99558.09;5026683;28;20672;-55
2021/09/30 07:01:32;;;;;;;1.87;0.90;;;;;;;21.51;47.50;99561.13;5054776;28;20227;-54
2021/09/30 07:04:17;;;;;;;1.30;1.07;;;;;;;21.55;47.62;99562.47;5055057;28;20283;-57
2021/09/30 07:07:16;;;;;;;0.80;0.80;;;;;;;21.37;47.67;99565.13;5021282;28;20289;-56
2021/09/30 07:09:43;;;;;;;1.13;0.90;;;;;;;21.41;47.83;99563.03;5053608;28;20193;-55
2021/09/30 07:12:09;;;;;;;2.37;0.63;;;;;;;21.44;47.57;99560.06;5054675;28;20250;-53
2021/09/30 07:14:35;;;;;;;1.37;0.70;;;;;;;21.48;47.28;99560.59;5054813;28;20718;-54
2021/09/30 07:17:03;;;;;;;2.33;0.90;;;;;;;21.38;47.87;99573.94;5054750;28;20247;-56
2021/09/30 07:19:32;;;;;;;0.87;0.67;;;;;;;21.44;47.55;99570.66;5054537;28;20656;-57
2021/09/30 07:22:00;;;;;;;1.73;1.10;;;;;;;21.43;47.76;99566.34;5054599;28;20195;-51
2021/09/30 07:24:27;;;;;;;0.93;0.83;;;;;;;21.43;47.43;99563.69;5054345;28;20261;-56
2021/09/30 07:26:53;;;;;;;0.90;0.70;;;;;;;21.48;47.46;99556.13;5054634;28;20243;-57
2021/09/30 07:29:20;;;;;;;1.10;0.97;;;;;;;21.36;48.14;99562.66;5054622;28;20192;-56
2021/09/30 07:31:46;;;;;;;1.27;0.80;;;;;;;21.31;48.16;99555.13;5054271;28;20677;-55
2021/09/30 07:34:13;;;;;;;0.77;0.73;;;;;;;21.12;48.66;99570.22;5054247;28;20588;-57
2021/09/30 07:36:42;;;;;;;1.20;1.10;;;;;;;21.27;48.12;99565.22;5054154;28;20212;-57
2021/09/30 07:39:10;;;;;;;1.90;1.03;;;;;;;20.96;49.06;99560.28;5054453;28;20552;-55
2021/09/30 07:41:37;;;;;;;0.80;0.80;;;;;;;21.08;48.66;99565.38;5054317;28;20592;-57
2021/09/30 07:44:05;;;;;;;2.07;0.90;;;;;;;21.03;48.76;99571.13;5054138;28;20209;-56
2021/09/30 07:46:37;;;;;;;1.00;0.90;;;;;;;21.24;48.06;99570.84;5054010;28;20649;-55
2021/09/30 07:49:05;;;;;;;1.23;1.13;;;;;;;21.08;48.47;99576.00;5053895;28;20183;-55
2021/09/30 07:51:33;;;;;;;1.33;1.23;;;;;;;21.03;48.68;99563.16;5053828;28;20220;-54
2021/09/30 07:54:00;;;;;;;1.20;1.03;;;;;;;21.18;48.37;99560.00;5054182;28;20232;-53
2021/09/30 07:56:28;;;;;;;1.20;1.10;;;;;;;21.28;47.86;99566.88;5053598;28;20213;-53
2021/09/30 07:58:55;;;;;;;0.90;0.90;;;;;;;21.26;48.13;99562.75;5053469;28;20658;-56
2021/09/30 08:01:22;;;;;;;1.17;1.07;;;;;;;21.28;47.98;99566.88;5054187;28;20234;-53
2021/09/30 08:03:50;;;;;;;0.90;0.90;;;;;;;21.33;47.63;99563.78;5053735;28;20214;-56
2021/09/30 08:06:17;;;;;;;1.20;1.10;;;;;;;21.30;47.68;99563.25;5053667;28;20192;-55
2021/09/30 08:08:53;;;;;;;1.13;1.10;;;;;;;21.26;47.64;99574.16;5053615;28;20177;-56
2021/09/30 08:11:20;;;;;;;0.97;0.97;;;;;;;21.25;47.96;99572.50;5053505;28;20196;-55
2021/09/30 08:13:47;;;;;;;1.30;1.00;;;;;;;21.27;47.84;99570.53;5053457;28;20258;-53
2021/09/30 08:16:14;;;;;;;0.97;0.97;;;;;;;21.31;47.59;99564.91;5053437;28;20198;-55
2021/09/30 08:18:41;;;;;;;1.20;1.10;;;;;;;21.31;47.83;99564.91;5053345;28;20200;-56
2021/09/30 08:21:12;;;;;;;1.20;1.00;;;;;;;21.34;47.73;99564.63;5053362;28;20198;-56
2021/09/30 08:23:40;;;;;;;1.10;1.10;;;;;;;21.32;47.76;99563.94;5053229;28;20263;-55
2021/09/30 08:26:07;;;;;;;1.10;1.00;;;;;;;21.31;48.12;99576.38;5053283;28;20241;-56
2021/09/30 08:28:36;;;;;;;1.30;1.20;;;;;;;21.00;48.82;99571.44;5053254;28;20215;-56
2021/09/30 08:31:05;;;;;;;1.40;1.10;;;;;;;20.98;48.36;99565.44;5053245;28;20192;-54
2021/09/30 08:33:32;;;;;;;2.10;1.33;;;;;;;21.18;47.95;99555.53;5053191;28;20261;-56
2021/09/30 08:35:59;;;;;;;1.10;1.00;;;;;;;21.22;47.79;99556.88;5052008;28;20188;-55
2021/09/30 08:38:26;;;;;;;1.53;1.23;;;;;;;21.21;47.88;99560.53;5052995;28;20213;-53
2021/09/30 08:40:52;;;;;;;1.77;1.17;;;;;;;21.20;48.34;99561.53;5053370;28;20238;-56
2021/09/30 08:43:19;;;;;;;1.10;1.00;;;;;;;21.16;48.11;99560.16;5052888;28;20260;-54
2021/09/30 08:45:45;;;;;;;1.30;1.20;;;;;;;21.19;48.09;99562.50;5052985;28;20201;-55
2021/09/30 08:48:12;;;;;;;1.33;1.10;;;;;;;21.21;48.30;99559.69;5052982;28;20184;-56
2021/09/30 08:50:40;;;;;;;1.10;1.10;;;;;;;21.20;48.05;99564.16;5052879;28;20604;-56
2021/09/30 08:53:09;;;;;;;1.00;1.00;;;;;;;21.18;48.07;99567.94;5053316;28;20207;-51
2021/09/30 08:55:36;;;;;;;1.10;1.10;;;;;;;21.20;47.99;99564.16;5051567;28;20194;-56
2021/09/30 08:58:05;;;;;;;1.63;1.27;;;;;;;21.28;48.07;99561.56;5052998;28;20322;-55
2021/09/30 09:00:34;;;;;;;1.50;1.20;;;;;;;21.24;48.12;99559.41;5052837;28;20655;-53
2021/09/30 09:03:00;;;;;;;2.20;1.20;;;;;;;21.26;48.03;99560.91;5052837;28;20286;-56
2021/09/30 09:05:27;;;;;;;1.30;1.20;;;;;;;21.36;48.34;99562.66;5052831;28;20189;-56
2021/09/30 09:08:03;;;;;;;1.30;1.00;;;;;;;21.31;48.46;99554.28;5053031;28;20185;-54
2021/09/30 09:10:32;;;;;;;1.10;1.10;;;;;;;21.26;48.62;99552.94;5057228;28;20206;-56
2021/09/30 09:13:13;;;;;;;1.40;1.30;;;;;;;21.40;48.26;99548.06;5056689;28;20241;-56
2021/09/30 09:15:48;;;;;;;1.30;1.20;;;;;;;21.39;48.38;99554.38;5057370;28;20178;-56
2021/09/30 09:18:23;;;;;;;1.87;1.20;;;;;;;21.39;48.11;99552.56;5056695;28;20272;-56
2021/09/30 09:21:04;;;;;;;1.40;1.30;;;;;;;21.46;47.71;99547.44;5056809;28;20174;-53
2021/09/30 09:23:32;;;;;;;1.37;1.27;;;;;;;21.49;47.89;99546.31;5056697;28;20257;-53
2021/09/30 09:26:07;;;;;;;1.13;1.03;;;;;;;21.45;47.96;99548.44;5056701;28;20192;-56
2021/09/30 09:28:33;;;;;;;1.40;1.30;;;;;;;21.48;48.19;99544.66;5055498;28;20185;-56
2021/09/30 09:31:00;;;;;;;1.20;1.10;;;;;;;21.50;48.37;99550.63;5056552;28;20690;-56
2021/09/30 09:33:29;;;;;;;1.30;1.20;;;;;;;21.53;48.15;99545.00;5056484;28;20211;-55
2021/09/30 09:36:10;;;;;;;1.47;1.20;;;;;;;21.62;48.06;99551.22;5056435;28;20183;-50
2021/09/30 09:38:42;;;;;;;1.40;1.30;;;;;;;21.19;48.07;99553.69;5056610;28;20204;-57
2021/09/30 09:41:14;;;;;;;1.27;1.17;;;;;;;21.51;47.56;99550.50;5056713;28;20198;-53
2021/09/30 09:43:44;;;;;;;1.33;1.27;;;;;;;21.79;47.19;99537.13;5056486;28;20216;-53
2021/09/30 09:46:14;;;;;;;1.53;1.43;;;;;;;21.81;46.88;99544.91;5056296;28;20186;-53
2021/09/30 09:48:58;;;;;;;1.53;1.40;;;;;;;21.78;47.18;99546.06;5056519;28;20230;-53
2021/09/30 09:51:25;;;;;;;1.30;1.20;;;;;;;21.82;47.28;99547.44;5056611;28;20183;-54
2021/09/30 09:53:55;;;;;;;2.57;1.50;;;;;;;21.65;46.95;99548.28;5056086;28;20213;-56
2021/09/30 09:56:22;;;;;;;2.67;1.23;;;;;;;21.67;46.91;99543.66;5055490;28;20185;-53
2021/09/30 09:58:52;;;;;;;1.50;1.40;;;;;;;21.75;47.14;99537.59;5056298;28;20235;-53
2021/09/30 10:01:22;;;;;;;1.40;1.30;;;;;;;21.80;47.19;99535.28;5054879;28;20522;-55
2021/09/30 10:03:52;;;;;;;1.53;1.40;;;;;;;21.84;46.87;99533.97;5056112;28;20226;-55
2021/09/30 10:06:19;;;;;;;3.33;1.83;;;;;;;21.72;47.11;99540.56;5056127;28;20195;-53
2021/09/30 10:08:46;;;;;;;1.87;1.30;;;;;;;21.66;47.28;99537.50;5056303;28;20563;-55
2021/09/30 10:11:13;;;;;;;2.33;1.70;;;;;;;21.60;47.76;99548.75;5055818;28;20235;-54
2021/09/30 10:13:40;;;;;;;1.47;1.37;;;;;;;21.60;47.36;99542.56;5055621;28;20272;-54
2021/09/30 10:16:08;;;;;;;1.93;1.60;;;;;;;21.34;48.04;99543.38;5054800;28;20556;-58
2021/09/30 10:18:34;;;;;;;1.58;1.48;;;;;;;21.43;47.69;99545.09;5055376;28;20427;-54
2021/09/30 10:21:01;;;;;;;2.10;1.50;;;;;;;21.44;47.76;99544.13;5054809;28;20263;-55
2021/09/30 10:23:37;;;;;;;1.50;1.40;;;;;;;21.59;47.71;99540.91;5055703;28;20197;-55
2021/09/30 10:26:16;;;;;;;1.53;1.43;;;;;;;21.64;47.67;99534.16;5055825;28;20260;-56
2021/09/30 10:28:44;;;;;;;1.50;1.40;;;;;;;21.70;47.32;99538.03;5055480;28;20177;-56
2021/09/30 10:31:32;;;;;;;3.00;1.40;;;;;;;21.64;47.82;99530.69;5055351;28;20239;-52
2021/09/30 10:34:03;;;;;;;2.27;1.27;;;;;;;21.71;47.49;99531.75;5055339;28;20206;-56
2021/09/30 10:36:45;;;;;;;1.63;1.40;;;;;;;21.69;47.41;99525.75;5055890;28;20188;-55
2021/09/30 10:39:31;;;;;;;1.53;1.40;;;;;;;21.55;47.73;99530.59;5055573;28;20580;-57
2021/09/30 10:42:04;;;;;;;1.33;1.23;;;;;;;21.56;47.90;99532.28;5055669;28;20184;-55
2021/09/30 10:44:34;;;;;;;1.43;1.33;;;;;;;21.62;47.53;99519.34;5055267;28;20210;-54
2021/09/30 10:47:06;;;;;;;1.43;1.30;;;;;;;21.58;48.02;99520.66;5053965;28;20173;-55
2021/09/30 10:49:52;;;;;;;1.50;1.40;;;;;;;21.49;47.78;99520.59;5054250;28;20172;-56
2021/09/30 10:52:21;;;;;;;2.20;1.50;;;;;;;21.58;47.74;99520.66;5055294;28;20662;-56
2021/09/30 10:55:14;;;;;;;1.50;1.40;;;;;;;21.52;47.64;99514.97;5054892;28;20280;-56
2021/09/30 10:57:43;;;;;;;1.43;1.27;;;;;;;21.54;47.60;99518.31;5049876;28;20226;-55
2021/09/30 11:00:31;;;;;;;2.93;1.50;;;;;;;21.70;47.47;99516.78;5054843;28;20196;-55
2021/09/30 11:03:01;;;;;;;1.30;1.20;;;;;;;21.66;47.80;99513.59;5054625;28;20549;-56
2021/09/30 11:05:28;;;;;;;1.60;1.50;;;;;;;21.56;47.71;99516.34;5054697;28;20189;-55
2021/09/30 11:08:17;;;;;;;1.50;1.40;;;;;;;21.49;47.99;99515.28;5055000;28;20193;-56
2021/09/30 11:11:02;;;;;;;1.70;1.10;;;;;;;21.08;46.56;99514.94;5054936;28;20184;-55
2021/09/30 11:13:34;;;;;;;2.70;1.50;;;;;;;21.05;46.62;99515.25;5036964;28;20220;-56
2021/09/30 11:16:14;;;;;;;3.97;1.30;;;;;;;21.10;46.25;99510.31;5054600;28;20228;-56
2021/09/30 11:18:43;;;;;;;3.30;1.40;;;;;;;20.91;46.58;99511.31;5054569;28;20592;-56
2021/09/30 11:21:31;;;;;;;2.33;1.53;;;;;;;21.26;46.62;99520.25;5054499;28;20193;-56
2021/09/30 11:24:10;;;;;;;3.20;1.50;;;;;;;21.26;47.23;99502.50;5054657;28;20216;-56
2021/09/30 11:26:49;;;;;;;3.10;1.30;;;;;;;21.08;47.27;99501.69;5054907;28;20176;-57
2021/09/30 11:29:25;;;;;;;1.37;1.23;;;;;;;21.22;47.19;99502.94;5053080;28;20215;-54
2021/09/30 11:31:54;;;;;;;1.73;1.20;;;;;;;21.22;47.37;99503.78;5053836;28;20243;-56
2021/09/30 11:34:23;;;;;;;2.20;1.30;;;;;;;21.18;47.45;99505.09;5054330;28;20696;-56
2021/09/30 11:36:51;;;;;;;1.43;1.30;;;;;;;21.38;47.09;99491.63;5054266;28;20187;-55
2021/09/30 11:39:18;;;;;;;2.90;1.50;;;;;;;21.46;46.82;99481.06;5054152;28;20185;-56
2021/09/30 11:41:46;;;;;;;1.63;1.30;;;;;;;21.53;46.61;99478.63;5052900;28;20204;-53
2021/09/30 11:44:20;;;;;;;3.23;1.30;;;;;;;21.51;47.18;99481.44;5054606;28;20746;-56
2021/09/30 11:46:51;;;;;;;1.60;1.17;;;;;;;21.38;47.47;99481.00;5054231;28;20228;-54
2021/09/30 11:49:19;;;;;;;2.50;1.33;;;;;;;21.33;48.04;99472.69;5054143;28;20276;-55
2021/09/30 11:51:48;;;;;;;1.33;1.07;;;;;;;21.38;47.59;99471.22;5053887;28;20715;-53
2021/09/30 11:54:17;;;;;;;3.00;1.23;;;;;;;21.33;47.90;99459.41;5054018;28;20753;-55
2021/09/30 11:56:55;;;;;;;1.50;1.30;;;;;;;21.38;48.32;99455.28;5053849;28;20229;-55
2021/09/30 11:59:23;;;;;;;2.67;1.47;;;;;;;21.32;48.00;99447.13;5054057;28;20174;-55
2021/09/30 12:01:51;;;;;;;1.23;1.13;;;;;;;21.31;47.88;99442.78;5053647;28;20660;-54
2021/09/30 12:04:47;;;;;;;2.03;1.40;;;;;;;21.36;47.64;99438.69;5053989;28;20209;-55
2021/09/30 12:07:20;;;;;;;1.50;1.30;;;;;;;21.42;47.64;99432.75;5053936;28;20238;-55
2021/09/30 12:09:49;;;;;;;1.73;1.30;;;;;;;21.50;47.74;99425.81;5052445;28;20190;-56
2021/09/30 12:12:16;;;;;;;1.40;1.17;;;;;;;21.59;47.36;99432.00;5053555;28;20661;-55
2021/09/30 12:14:48;;;;;;;1.87;1.20;;;;;;;21.58;47.74;99425.88;5053342;28;20244;-54
2021/09/30 12:17:19;;;;;;;2.40;1.50;;;;;;;21.66;47.06;99417.16;5052575;28;20176;-56
2021/09/30 12:19:51;;;;;;;1.43;1.30;;;;;;;21.65;47.31;99415.47;5053624;28;20632;-56
2021/09/30 12:22:21;;;;;;;1.20;1.10;;;;;;;21.68;47.25;99412.50;5053429;28;20191;-53
2021/09/30 12:24:50;;;;;;;1.73;1.30;;;;;;;21.69;47.46;99414.19;5053572;28;20282;-55
2021/09/30 12:27:19;;;;;;;1.20;1.10;;;;;;;21.62;47.64;99413.09;5053391;28;20247;-55
2021/09/30 12:29:48;;;;;;;1.73;1.10;;;;;;;21.55;47.59;99408.44;5053696;28;20247;-54
2021/09/30 12:32:27;;;;;;;1.50;1.40;;;;;;;21.57;47.88;99400.31;5053122;28;20191;-55
2021/09/30 12:35:00;;;;;;;1.73;1.30;;;;;;;21.60;47.89;99405.31;5051783;28;20214;-56
2021/09/30 12:37:29;;;;;;;1.73;1.23;;;;;;;21.56;47.79;99402.13;5053328;28;20197;-55
2021/09/30 12:40:08;;;;;;;1.57;1.10;;;;;;;21.56;47.63;99399.47;5053051;28;20187;-55
2021/09/30 12:42:35;;;;;;;1.10;1.10;;;;;;;21.56;47.81;99403.97;5053071;28;20185;-53
2021/09/30 12:45:04;;;;;;;2.00;1.30;;;;;;;21.52;48.00;99392.81;5052628;28;20217;-53
2021/09/30 12:47:42;;;;;;;2.40;1.20;;;;;;;21.54;47.61;99390.84;5053231;28;20189;-55
2021/09/30 12:50:15;;;;;;;3.43;1.40;;;;;;;21.59;47.74;99386.84;5053194;28;20545;-56
2021/09/30 12:52:44;;;;;;;1.80;1.37;;;;;;;21.52;47.71;99387.50;5053187;28;20178;-53
2021/09/30 12:55:19;;;;;;;1.40;1.20;;;;;;;21.36;48.13;99382.09;5053255;28;20189;-54
2021/09/30 12:57:47;;;;;;;1.80;1.20;;;;;;;21.37;48.00;99383.78;5052926;28;20194;-56
2021/09/30 13:00:17;;;;;;;1.50;1.40;;;;;;;21.49;47.85;99379.00;5052956;28;20186;-55
2021/09/30 13:02:46;;;;;;;2.77;1.50;;;;;;;21.45;47.73;99375.00;5051627;28;20190;-55
2021/09/30 13:05:15;;;;;;;1.40;1.30;;;;;;;21.46;48.01;99364.22;5053097;28;20184;-56
2021/09/30 13:07:52;;;;;;;1.30;1.20;;;;;;;21.56;47.77;99364.94;5052787;28;20663;-55
2021/09/30 13:10:27;;;;;;;3.20;1.43;;;;;;;21.65;47.51;99370.31;5053318;28;20178;-55
2021/09/30 13:12:58;;;;;;;1.23;1.10;;;;;;;21.68;47.61;99370.81;5052804;28;20230;-57
2021/09/30 13:15:33;;;;;;;2.00;1.40;;;;;;;21.65;47.61;99363.19;5052684;28;20726;-56
2021/09/30 13:18:01;;;;;;;1.30;1.20;;;;;;;21.73;47.62;99362.38;5052892;28;20202;-56
2021/09/30 13:20:28;;;;;;;1.47;1.37;;;;;;;21.62;47.86;99374.09;5052698;28;20194;-57
2021/09/30 13:22:54;;;;;;;1.27;1.07;;;;;;;21.62;47.87;99374.09;5052627;28;20678;-56
2021/09/30 13:25:21;;;;;;;1.20;1.10;;;;;;;21.56;48.10;99367.59;5052866;28;20186;-56
2021/09/30 13:27:49;;;;;;;1.40;1.30;;;;;;;21.61;47.72;99364.47;5052580;28;20183;-56
2021/09/30 13:30:19;;;;;;;2.40;1.30;;;;;;;21.57;47.91;99363.13;5053053;28;20189;-56
2021/09/30 13:32:47;;;;;;;2.10;1.20;;;;;;;21.50;48.23;99362.94;5052466;28;20742;-56
2021/09/30 13:35:15;;;;;;;1.30;1.20;;;;;;;21.41;48.16;99355.91;5052512;28;20269;-56
2021/09/30 13:37:41;;;;;;;1.60;1.27;;;;;;;21.44;48.26;99352.09;5052666;28;20305;-54
2021/09/30 13:40:09;;;;;;;1.43;1.20;;;;;;;21.60;47.71;99348.69;5052404;28;20191;-55
2021/09/30 13:42:38;;;;;;;1.23;1.00;;;;;;;21.51;47.92;99353.97;5052464;28;20189;-57
2021/09/30 13:45:11;;;;;;;1.60;1.37;;;;;;;21.12;48.76;99349.09;5052365;28;20623;-57
2021/09/30 13:47:38;;;;;;;1.33;1.23;;;;;;;21.44;48.17;99339.66;5052413;28;20185;-56
2021/09/30 13:50:07;;;;;;;2.77;1.20;;;;;;;21.52;48.07;99338.84;5052289;28;20251;-55
2021/09/30 13:52:33;;;;;;;1.40;1.30;;;;;;;21.49;48.09;99326.75;5052599;28;20182;-57
2021/09/30 13:55:00;;;;;;;2.10;1.13;;;;;;;21.58;47.67;99326.78;5052200;28;20239;-56
2021/09/30 13:57:27;;;;;;;1.70;1.43;;;;;;;21.62;47.69;99328.09;5055960;28;20652;-57
2021/09/30 13:59:53;;;;;;;2.17;1.30;;;;;;;21.67;47.85;99320.53;5056002;28;20537;-57
2021/09/30 14:02:43;;;;;;;1.67;1.30;;;;;;;21.63;47.58;99319.13;5055728;28;20735;-56
2021/09/30 14:05:13;;;;;;;1.27;1.10;;;;;;;21.40;48.50;99325.03;5056048;28;20189;-55
2021/09/30 14:07:41;;;;;;;0.90;0.90;;;;;;;21.62;47.63;99318.31;5055815;28;20193;-56
2021/09/30 14:10:11;;;;;;;2.20;1.20;;;;;;;21.68;47.79;99317.69;5055127;28;20198;-53
2021/09/30 14:12:38;;;;;;;1.23;1.13;;;;;;;21.65;47.63;99311.88;5055760;28;20198;-55
2021/09/30 14:15:06;;;;;;;1.37;1.10;;;;;;;21.62;48.02;99310.34;5055624;28;20292;-54
2021/09/30 14:17:33;;;;;;;1.13;1.03;;;;;;;21.61;48.06;99315.81;5055841;28;20223;-56
2021/09/30 14:20:00;;;;;;;1.80;1.17;;;;;;;21.67;47.90;99312.56;5056072;28;20557;-54
2021/09/30 14:22:28;;;;;;;1.93;1.00;;;;;;;21.58;47.78;99309.03;5055605;28;20181;-53
2021/09/30 14:24:54;;;;;;;1.30;1.20;;;;;;;21.59;47.86;99301.88;5055707;28;20277;-54
2021/09/30 14:27:23;;;;;;;1.13;0.90;;;;;;;21.54;48.14;99297.88;5054310;28;20192;-54
2021/09/30 14:29:50;;;;;;;1.13;1.03;;;;;;;21.56;48.09;99301.19;5055380;28;20190;-55
2021/09/30 14:32:16;;;;;;;1.23;1.07;;;;;;;21.59;47.86;99297.41;5055420;28;20183;-55
2021/09/30 14:34:43;;;;;;;1.13;1.10;;;;;;;21.56;47.74;99303.84;5055549;28;20258;-54
2021/09/30 14:37:09;;;;;;;1.10;1.00;;;;;;;21.54;48.10;99300.53;5055243;28;20186;-54
2021/09/30 14:39:36;;;;;;;0.80;0.80;;;;;;;21.48;47.88;99295.88;5055434;28;20275;-54
2021/09/30 14:42:03;;;;;;;1.43;1.17;;;;;;;21.46;48.43;99287.22;5055419;28;20230;-56
2021/09/30 14:44:29;;;;;;;2.37;1.30;;;;;;;21.32;47.76;99290.50;5055092;28;20326;-56
2021/09/30 14:46:56;;;;;;;1.97;1.20;;;;;;;21.54;48.11;99284.59;5055102;28;20197;-54
2021/09/30 14:49:25;;;;;;;1.63;1.00;;;;;;;21.60;47.53;99288.44;5055772;28;20238;-55
2021/09/30 14:51:51;;;;;;;1.10;1.00;;;;;;;21.60;47.77;99287.59;5053829;28;20565;-56
2021/09/30 14:54:19;;;;;;;1.60;1.03;;;;;;;21.68;47.61;99287.66;5054921;28;20207;-53